createdAt,value
2022-10-18T00:02:22.473Z,9.90
2022-10-18T00:08:24.244Z,10.27
2022-10-18T00:14:25.705Z,9.70
2022-10-18T00:20:27.168Z,8.43
2022-10-18T00:26:29.207Z,9.55
2022-10-18T00:32:30.851Z,9.37
2022-10-18T00:38:32.513Z,12.38
2022-10-18T00:44:34.043Z,8.33
2022-10-18T00:50:36.199Z,10.45
2022-10-18T00:56:37.739Z,9.85
2022-10-18T01:02:41.355Z,9.60
2022-10-18T01:08:58.564Z,11.45
2022-10-18T01:15:05.861Z,9.50
2022-10-18T01:21:17.761Z,11.02
2022-10-18T01:27:35.708Z,10.40
2022-10-18T01:33:37.187Z,13.43
2022-10-18T01:39:40.316Z,10.98
2022-10-18T01:45:42.153Z,10.23
2022-10-18T01:51:43.759Z,9.32
2022-10-18T01:57:50.464Z,9.38
2022-10-18T02:03:54.554Z,9.90
2022-10-18T02:10:06.561Z,10.25
2022-10-18T02:16:09.870Z,9.07
2022-10-18T02:22:12.023Z,9.55
2022-10-18T02:28:13.618Z,10.38
2022-10-18T02:34:20.967Z,9.57
2022-10-18T02:40:22.687Z,8.60
2022-10-18T02:46:24.297Z,10.93
2022-10-18T02:52:25.759Z,9.65
2022-10-18T02:58:27.334Z,8.75
2022-10-18T03:10:35.133Z,9.93
2022-10-18T03:16:36.669Z,12.17
2022-10-18T03:22:38.112Z,9.15
2022-10-18T03:28:39.574Z,9.32
2022-10-18T03:34:41.080Z,9.53
2022-10-18T03:40:42.504Z,10.07
2022-10-18T03:46:43.930Z,9.20
2022-10-18T03:52:45.358Z,8.45
2022-10-18T03:58:47.080Z,9.27
2022-10-18T04:04:49.315Z,9.23
2022-10-18T04:10:52.465Z,7.90
2022-10-18T04:16:53.893Z,9.97
2022-10-18T04:22:57.331Z,10.45
2022-10-18T04:28:58.822Z,9.40
2022-10-18T04:35:00.439Z,10.07
2022-10-18T04:41:01.904Z,14.55
2022-10-18T04:47:03.351Z,10.40
2022-10-18T04:53:04.802Z,10.27
2022-10-18T04:59:06.410Z,10.40
2022-10-18T05:05:10.347Z,9.30
2022-10-18T05:11:15.020Z,10.30
2022-10-18T05:17:16.558Z,11.37
2022-10-18T05:23:18.006Z,21.73
2022-10-18T05:29:19.611Z,14.80
2022-10-18T05:35:21.109Z,13.70
2022-10-18T05:41:22.620Z,17.70
2022-10-18T05:47:24.181Z,14.87
2022-10-18T05:53:36.348Z,20.17
2022-10-18T05:59:38.453Z,13.27
2022-10-18T06:11:46.224Z,17.08
2022-10-18T06:17:47.693Z,18.23
2022-10-18T06:23:49.763Z,21.05
2022-10-18T06:29:51.211Z,13.95
2022-10-18T06:35:57.213Z,15.67
2022-10-18T06:41:58.631Z,19.88
2022-10-18T06:48:00.055Z,18.77
2022-10-18T06:54:18.726Z,18.73
2022-10-18T07:00:20.634Z,14.70
2022-10-18T07:06:23.121Z,18.00
2022-10-18T07:12:24.767Z,15.65
2022-10-18T07:18:26.449Z,15.77
2022-10-18T07:24:27.965Z,14.50
2022-10-18T07:30:29.438Z,16.05
2022-10-18T07:36:31.339Z,16.27
2022-10-18T07:42:34.448Z,17.45
2022-10-18T07:48:35.900Z,17.00
2022-10-18T07:54:37.448Z,19.25
2022-10-18T08:00:39.378Z,14.13
2022-10-18T08:06:40.832Z,10.43
2022-10-18T08:12:42.423Z,14.70
2022-10-18T08:18:44.126Z,17.00
2022-10-18T08:24:45.572Z,13.15
2022-10-18T08:30:47.090Z,10.80
2022-10-18T08:36:48.562Z,19.87
2022-10-18T08:42:57.929Z,20.77
2022-10-18T08:48:59.743Z,16.83
2022-10-18T08:55:03.271Z,15.05
2022-10-18T09:01:20.258Z,6.65
2022-10-18T09:07:40.264Z,8.23
2022-10-18T09:14:00.444Z,12.98
2022-10-18T09:20:21.800Z,7.30
2022-10-18T09:26:23.918Z,7.10
2022-10-18T09:32:44.086Z,8.77
2022-10-18T09:38:48.313Z,7.67
2022-10-18T09:44:55.520Z,7.47
2022-10-18T09:51:00.764Z,6.27
2022-10-18T09:57:05.476Z,7.97
2022-10-18T10:03:11.024Z,5.85
2022-10-18T10:09:17.003Z,5.73
2022-10-18T10:15:20.126Z,5.53
2022-10-18T10:21:22.264Z,6.00
2022-10-18T10:27:30.152Z,5.70
2022-10-18T10:33:36.313Z,6.15
2022-10-18T10:39:37.762Z,6.20
2022-10-18T10:45:59.520Z,7.38
2022-10-18T10:52:15.387Z,9.17
2022-10-18T10:58:23.932Z,9.00
2022-10-18T11:04:29.689Z,8.27
2022-10-18T11:10:34.514Z,8.33
2022-10-18T11:16:56.196Z,6.88
2022-10-18T11:23:02.644Z,7.50
2022-10-18T11:29:26.044Z,7.88
2022-10-18T11:35:27.865Z,7.45
2022-10-18T11:41:52.725Z,6.87
2022-10-18T11:48:13.122Z,8.32
2022-10-18T11:54:29.045Z,8.03
2022-10-18T12:00:40.480Z,7.15
2022-10-18T12:06:42.872Z,8.13
2022-10-18T12:12:58.315Z,9.37
2022-10-18T12:19:01.623Z,6.05
2022-10-18T12:25:04.171Z,8.00
2022-10-18T12:31:24.483Z,8.60
2022-10-18T12:37:35.173Z,7.43
2022-10-18T12:43:36.949Z,9.40
2022-10-18T12:49:41.411Z,7.82
2022-10-18T12:55:47.280Z,8.57
2022-10-18T13:01:51.910Z,6.65
2022-10-18T13:08:01.998Z,7.10
2022-10-18T13:14:15.230Z,7.73
2022-10-18T13:20:31.770Z,11.35
2022-10-18T13:26:59.121Z,8.77
2022-10-18T13:33:18.427Z,8.40
2022-10-18T13:39:20.426Z,9.07
2022-10-18T13:45:31.841Z,9.00
2022-10-18T13:51:40.938Z,9.30
2022-10-18T13:57:57.211Z,8.53
2022-10-18T14:04:13.787Z,11.43
2022-10-18T14:10:43.265Z,9.65
2022-10-18T14:16:50.288Z,8.63
2022-10-18T14:23:10.451Z,7.47
2022-10-18T14:29:19.465Z,7.00
2022-10-18T14:35:37.634Z,6.68
2022-10-18T14:41:48.089Z,7.70
2022-10-18T14:47:49.686Z,7.40
2022-10-18T14:53:51.593Z,10.52
2022-10-18T14:59:56.927Z,8.60
2022-10-18T15:05:59.785Z,7.88
2022-10-18T15:12:03.172Z,10.10
2022-10-18T15:18:06.448Z,9.87
2022-10-18T15:24:26.323Z,8.68
2022-10-18T15:30:28.996Z,10.17
2022-10-18T15:36:31.990Z,12.77
2022-10-18T15:42:37.443Z,11.95
2022-10-18T15:48:40.383Z,8.70
2022-10-18T15:54:41.954Z,9.65
2022-10-18T16:00:44.035Z,12.10
2022-10-18T16:06:45.787Z,10.50
2022-10-18T16:12:47.654Z,13.73
2022-10-18T16:18:49.600Z,11.90
2022-10-18T16:24:52.533Z,15.30
2022-10-18T16:30:56.441Z,14.40
2022-10-18T16:36:57.972Z,12.95
2022-10-18T16:42:59.475Z,14.80
2022-10-18T16:49:01.634Z,14.97
2022-10-18T16:55:03.247Z,13.07
2022-10-18T17:01:08.025Z,14.90
2022-10-18T17:07:15.294Z,16.95
2022-10-18T17:13:17.011Z,19.38
2022-10-18T17:19:18.711Z,20.80
2022-10-18T17:25:20.632Z,17.58
2022-10-18T17:31:22.388Z,16.63
2022-10-18T17:37:24.814Z,14.23
2022-10-18T17:43:26.359Z,15.05
2022-10-18T17:49:27.868Z,16.13
2022-10-18T17:55:30.047Z,17.25
2022-10-18T18:01:32.608Z,15.97
2022-10-18T18:07:34.846Z,18.08
2022-10-18T18:13:36.401Z,18.60
2022-10-18T18:19:38.138Z,19.83
2022-10-18T18:25:42.143Z,18.85
2022-10-18T18:31:44.006Z,22.73
2022-10-18T18:37:49.405Z,21.67
2022-10-18T18:43:52.231Z,22.02
2022-10-18T18:49:53.874Z,25.13
2022-10-18T18:56:00.279Z,24.17
2022-10-18T19:02:01.846Z,24.80
2022-10-18T19:08:04.457Z,25.13
2022-10-18T19:14:07.086Z,25.63
2022-10-18T19:20:12.154Z,24.70
2022-10-18T19:26:17.771Z,23.38
2022-10-18T19:32:19.433Z,23.37
2022-10-18T19:38:20.954Z,24.83
2022-10-18T19:44:23.074Z,22.85
2022-10-18T19:56:31.442Z,21.33
2022-10-18T20:02:33.954Z,27.60
2022-10-18T20:08:36.317Z,24.42
2022-10-18T20:14:37.884Z,25.77
2022-10-18T20:20:40.397Z,26.60
2022-10-18T20:26:43.744Z,24.90
2022-10-18T20:32:45.365Z,22.20
2022-10-18T20:38:47.713Z,27.00
2022-10-18T20:44:49.184Z,29.67
2022-10-18T20:50:50.869Z,24.10
2022-10-18T20:56:53.368Z,28.55
2022-10-18T21:02:57.448Z,27.00
2022-10-18T21:08:59.903Z,31.35
2022-10-18T21:15:01.413Z,30.40
2022-10-18T21:21:07.004Z,41.33
2022-10-18T21:27:08.492Z,39.15
2022-10-18T21:33:09.954Z,27.00
2022-10-18T21:39:15.884Z,25.27
2022-10-18T21:45:17.422Z,20.20
2022-10-18T21:51:19.792Z,19.20
2022-10-18T21:57:21.256Z,16.60
2022-10-18T22:03:23.326Z,21.50
2022-10-18T22:09:24.763Z,19.42
2022-10-18T22:15:26.284Z,17.17
2022-10-18T22:21:28.167Z,18.17
2022-10-18T22:27:30.350Z,17.85
2022-10-18T22:33:32.151Z,21.13
2022-10-18T22:39:33.798Z,23.48
2022-10-18T22:45:35.331Z,27.50
2022-10-18T22:51:36.955Z,24.83
2022-10-18T22:57:38.394Z,24.95
2022-10-18T23:03:39.931Z,18.63
2022-10-18T23:15:47.739Z,13.27
2022-10-18T23:21:49.406Z,14.73
2022-10-18T23:27:50.843Z,15.13
2022-10-18T23:33:53.426Z,14.70
2022-10-18T23:39:54.873Z,16.70
2022-10-18T23:45:56.371Z,15.27
2022-10-18T23:51:57.906Z,17.83
2022-10-18T23:57:59.421Z,16.35
